Hurst Springs, Texas
Current Conditions -  °F | °C
As of 2:51 AM on Friday 28 Nov 2014 (Local Time) from KACT Reporting Station
Clear Clear  
Wind Chill: 32°   Ceiling: Unl
Heat Index: 37°   Visibility: 10mi
Dew Point: 32°   Wind: 7mph
Humidity: 82%   Direction: 190°S
Pressure: 30.33"   Gusts: NA
Location:  31.7854°N, 97.5786°W
Report Text: KACT 280851Z 19006KT 10SM CLR 03/00 A3033 RMK AO2 SLP269 T00280000 58014
Loading
Personal Weather Stations






























Interactive Weather Map New forecast layout! Learn more

10-Day Weather Forecast

Advertisements
Track Severe Weather on mobile